sensor_id;sensor_type;location;lat;lon;timestamp;P1;durP1;ratioP1;P2;durP2;ratioP2
21562;SDS011;10942;47.894;11.424;2023-03-01T00:02:00;25.38;;;15.10;;
21562;SDS011;10942;47.894;11.424;2023-03-01T00:04:26;24.67;;;14.60;;
21562;SDS011;10942;47.894;11.424;2023-03-01T00:06:52;28.08;;;15.75;;
21562;SDS011;10942;47.894;11.424;2023-03-01T00:09:18;30.08;;;15.38;;
21562;SDS011;10942;47.894;11.424;2023-03-01T00:11:44;25.70;;;14.77;;
21562;SDS011;10942;47.894;11.424;2023-03-01T00:14:10;28.88;;;15.48;;
21562;SDS011;10942;47.894;11.424;2023-03-01T00:16:38;26.65;;;15.05;;
21562;SDS011;10942;47.894;11.424;2023-03-01T00:19:06;26.55;;;15.18;;
21562;SDS011;10942;47.894;11.424;2023-03-01T00:21:35;24.45;;;14.88;;
21562;SDS011;10942;47.894;11.424;2023-03-01T00:24:01;28.45;;;15.38;;
21562;SDS011;10942;47.894;11.424;2023-03-01T00:26:27;25.50;;;14.95;;
21562;SDS011;10942;47.894;11.424;2023-03-01T00:28:53;27.27;;;14.30;;
21562;SDS011;10942;47.894;11.424;2023-03-01T00:31:21;25.77;;;14.07;;
21562;SDS011;10942;47.894;11.424;2023-03-01T00:33:48;25.70;;;15.07;;
21562;SDS011;10942;47.894;11.424;2023-03-01T00:36:27;25.05;;;14.30;;
21562;SDS011;10942;47.894;11.424;2023-03-01T00:38:56;26.95;;;14.95;;
21562;SDS011;10942;47.894;11.424;2023-03-01T00:41:22;25.98;;;14.38;;
21562;SDS011;10942;47.894;11.424;2023-03-01T00:43:49;25.10;;;14.55;;
21562;SDS011;10942;47.894;11.424;2023-03-01T00:46:16;29.48;;;16.20;;
21562;SDS011;10942;47.894;11.424;2023-03-01T00:48:44;21.70;;;13.68;;
21562;SDS011;10942;47.894;11.424;2023-03-01T00:51:11;27.30;;;14.88;;
21562;SDS011;10942;47.894;11.424;2023-03-01T00:53:52;26.70;;;15.32;;
21562;SDS011;10942;47.894;11.424;2023-03-01T00:56:19;29.88;;;14.55;;
21562;SDS011;10942;47.894;11.424;2023-03-01T00:58:45;26.83;;;14.80;;
21562;SDS011;10942;47.894;11.424;2023-03-01T01:01:16;26.50;;;14.60;;
21562;SDS011;10942;47.894;11.424;2023-03-01T01:06:33;27.05;;;14.90;;
21562;SDS011;10942;47.894;11.424;2023-03-01T01:09:00;24.77;;;14.77;;
21562;SDS011;10942;47.894;11.424;2023-03-01T01:11:27;28.35;;;14.65;;
21562;SDS011;10942;47.894;11.424;2023-03-01T01:13:54;28.63;;;14.35;;
21562;SDS011;10942;47.894;11.424;2023-03-01T01:16:21;28.48;;;15.20;;
21562;SDS011;10942;47.894;11.424;2023-03-01T01:18:49;25.75;;;15.00;;
21562;SDS011;10942;47.894;11.424;2023-03-01T01:21:16;26.05;;;14.77;;
21562;SDS011;10942;47.894;11.424;2023-03-01T01:23:44;24.65;;;14.60;;
21562;SDS011;10942;47.894;11.424;2023-03-01T01:26:30;26.88;;;14.98;;
21562;SDS011;10942;47.894;11.424;2023-03-01T01:28:57;29.50;;;15.73;;
21562;SDS011;10942;47.894;11.424;2023-03-01T01:31:24;28.42;;;15.73;;
21562;SDS011;10942;47.894;11.424;2023-03-01T01:33:50;24.85;;;14.88;;
21562;SDS011;10942;47.894;11.424;2023-03-01T01:36:17;27.15;;;15.15;;
21562;SDS011;10942;47.894;11.424;2023-03-01T01:38:42;27.95;;;14.82;;
21562;SDS011;10942;47.894;11.424;2023-03-01T01:41:09;26.33;;;14.82;;
21562;SDS011;10942;47.894;11.424;2023-03-01T01:43:40;28.63;;;15.77;;
21562;SDS011;10942;47.894;11.424;2023-03-01T01:46:21;29.10;;;15.43;;
21562;SDS011;10942;47.894;11.424;2023-03-01T01:48:52;26.88;;;15.50;;
21562;SDS011;10942;47.894;11.424;2023-03-01T01:51:23;27.13;;;14.77;;
21562;SDS011;10942;47.894;11.424;2023-03-01T01:53:57;26.75;;;14.70;;
21562;SDS011;10942;47.894;11.424;2023-03-01T01:56:25;26.17;;;14.48;;
21562;SDS011;10942;47.894;11.424;2023-03-01T01:58:53;26.85;;;14.82;;
21562;SDS011;10942;47.894;11.424;2023-03-01T02:01:20;27.10;;;15.90;;
21562;SDS011;10942;47.894;11.424;2023-03-01T02:03:46;26.55;;;15.65;;
21562;SDS011;10942;47.894;11.424;2023-03-01T02:06:26;26.60;;;15.30;;
21562;SDS011;10942;47.894;11.424;2023-03-01T02:09:03;24.05;;;13.93;;
21562;SDS011;10942;47.894;11.424;2023-03-01T02:11:33;27.50;;;14.63;;
21562;SDS011;10942;47.894;11.424;2023-03-01T02:13:59;27.83;;;15.55;;
21562;SDS011;10942;47.894;11.424;2023-03-01T02:16:25;25.48;;;15.48;;
21562;SDS011;10942;47.894;11.424;2023-03-01T02:18:51;28.88;;;15.98;;
21562;SDS011;10942;47.894;11.424;2023-03-01T02:26:46;29.48;;;15.35;;
21562;SDS011;10942;47.894;11.424;2023-03-01T02:29:16;26.75;;;15.32;;
21562;SDS011;10942;47.894;11.424;2023-03-01T02:31:42;26.98;;;15.27;;
21562;SDS011;10942;47.894;11.424;2023-03-01T02:34:14;29.90;;;15.35;;
21562;SDS011;10942;47.894;11.424;2023-03-01T02:36:47;29.52;;;15.77;;
21562;SDS011;10942;47.894;11.424;2023-03-01T02:39:17;29.15;;;15.88;;
21562;SDS011;10942;47.894;11.424;2023-03-01T02:41:48;32.25;;;16.83;;
21562;SDS011;10942;47.894;11.424;2023-03-01T02:44:16;26.42;;;14.90;;
21562;SDS011;10942;47.894;11.424;2023-03-01T02:46:44;26.50;;;15.13;;
21562;SDS011;10942;47.894;11.424;2023-03-01T02:49:28;27.75;;;16.13;;
21562;SDS011;10942;47.894;11.424;2023-03-01T02:57:20;24.48;;;14.52;;
21562;SDS011;10942;47.894;11.424;2023-03-01T02:59:47;27.75;;;14.65;;
21562;SDS011;10942;47.894;11.424;2023-03-01T03:02:19;30.60;;;15.68;;
21562;SDS011;10942;47.894;11.424;2023-03-01T03:05:15;26.95;;;14.77;;
21562;SDS011;10942;47.894;11.424;2023-03-01T03:07:44;26.25;;;14.70;;
21562;SDS011;10942;47.894;11.424;2023-03-01T03:10:13;28.70;;;14.55;;
21562;SDS011;10942;47.894;11.424;2023-03-01T03:12:44;24.58;;;14.88;;
21562;SDS011;10942;47.894;11.424;2023-03-01T03:15:14;26.88;;;15.60;;
21562;SDS011;10942;47.894;11.424;2023-03-01T03:17:41;27.02;;;15.18;;
21562;SDS011;10942;47.894;11.424;2023-03-01T03:20:08;27.60;;;14.50;;
21562;SDS011;10942;47.894;11.424;2023-03-01T03:22:39;27.67;;;15.55;;
21562;SDS011;10942;47.894;11.424;2023-03-01T03:25:06;29.60;;;15.32;;
21562;SDS011;10942;47.894;11.424;2023-03-01T03:27:40;30.42;;;15.95;;
21562;SDS011;10942;47.894;11.424;2023-03-01T03:30:09;27.70;;;14.80;;
21562;SDS011;10942;47.894;11.424;2023-03-01T03:32:40;28.77;;;15.30;;
21562;SDS011;10942;47.894;11.424;2023-03-01T03:35:08;31.30;;;15.88;;
21562;SDS011;10942;47.894;11.424;2023-03-01T03:37:38;27.30;;;15.60;;
21562;SDS011;10942;47.894;11.424;2023-03-01T03:40:23;24.83;;;14.35;;
21562;SDS011;10942;47.894;11.424;2023-03-01T03:42:49;28.40;;;14.55;;
21562;SDS011;10942;47.894;11.424;2023-03-01T03:45:15;26.23;;;14.48;;
21562;SDS011;10942;47.894;11.424;2023-03-01T03:47:42;27.77;;;15.48;;
21562;SDS011;10942;47.894;11.424;2023-03-01T03:50:09;29.83;;;15.18;;
21562;SDS011;10942;47.894;11.424;2023-03-01T03:52:36;27.63;;;15.75;;
21562;SDS011;10942;47.894;11.424;2023-03-01T03:55:02;29.65;;;16.17;;
21562;SDS011;10942;47.894;11.424;2023-03-01T03:57:28;27.27;;;15.50;;
21562;SDS011;10942;47.894;11.424;2023-03-01T03:59:54;27.42;;;15.35;;
21562;SDS011;10942;47.894;11.424;2023-03-01T04:02:20;27.52;;;15.07;;
21562;SDS011;10942;47.894;11.424;2023-03-01T04:04:49;29.58;;;14.82;;
21562;SDS011;10942;47.894;11.424;2023-03-01T04:07:16;24.92;;;14.82;;
21562;SDS011;10942;47.894;11.424;2023-03-01T04:09:42;26.83;;;14.63;;
21562;SDS011;10942;47.894;11.424;2023-03-01T04:12:08;25.85;;;15.10;;
21562;SDS011;10942;47.894;11.424;2023-03-01T04:14:35;26.17;;;14.88;;
21562;SDS011;10942;47.894;11.424;2023-03-01T04:17:01;26.73;;;15.23;;
21562;SDS011;10942;47.894;11.424;2023-03-01T04:19:29;25.00;;;15.18;;
21562;SDS011;10942;47.894;11.424;2023-03-01T04:22:01;24.73;;;14.30;;
21562;SDS011;10942;47.894;11.424;2023-03-01T04:24:34;31.25;;;15.10;;
21562;SDS011;10942;47.894;11.424;2023-03-01T04:27:01;26.17;;;16.02;;
21562;SDS011;10942;47.894;11.424;2023-03-01T04:29:27;26.63;;;14.57;;
21562;SDS011;10942;47.894;11.424;2023-03-01T04:31:53;27.55;;;15.60;;
21562;SDS011;10942;47.894;11.424;2023-03-01T04:34:18;31.17;;;16.98;;
21562;SDS011;10942;47.894;11.424;2023-03-01T04:36:44;28.33;;;14.43;;
21562;SDS011;10942;47.894;11.424;2023-03-01T04:39:10;28.90;;;14.73;;
21562;SDS011;10942;47.894;11.424;2023-03-01T04:41:39;27.42;;;15.05;;
21562;SDS011;10942;47.894;11.424;2023-03-01T04:44:06;27.27;;;14.90;;
21562;SDS011;10942;47.894;11.424;2023-03-01T04:46:32;26.23;;;14.60;;
21562;SDS011;10942;47.894;11.424;2023-03-01T04:48:57;26.27;;;15.75;;
21562;SDS011;10942;47.894;11.424;2023-03-01T04:51:23;26.25;;;15.77;;
21562;SDS011;10942;47.894;11.424;2023-03-01T04:53:49;27.42;;;15.70;;
21562;SDS011;10942;47.894;11.424;2023-03-01T04:56:15;26.65;;;14.82;;
21562;SDS011;10942;47.894;11.424;2023-03-01T04:58:43;26.77;;;15.63;;
21562;SDS011;10942;47.894;11.424;2023-03-01T05:01:13;26.77;;;15.38;;
21562;SDS011;10942;47.894;11.424;2023-03-01T05:03:42;26.20;;;15.07;;
21562;SDS011;10942;47.894;11.424;2023-03-01T05:06:17;25.73;;;14.35;;
21562;SDS011;10942;47.894;11.424;2023-03-01T05:08:44;30.10;;;14.93;;
21562;SDS011;10942;47.894;11.424;2023-03-01T05:11:10;26.90;;;15.05;;
21562;SDS011;10942;47.894;11.424;2023-03-01T05:13:36;25.90;;;14.52;;
21562;SDS011;10942;47.894;11.424;2023-03-01T05:16:03;25.83;;;15.35;;
21562;SDS011;10942;47.894;11.424;2023-03-01T05:18:31;28.95;;;15.52;;
21562;SDS011;10942;47.894;11.424;2023-03-01T05:21:02;28.35;;;15.07;;
21562;SDS011;10942;47.894;11.424;2023-03-01T05:23:29;26.70;;;15.20;;
21562;SDS011;10942;47.894;11.424;2023-03-01T05:25:59;27.20;;;15.50;;
21562;SDS011;10942;47.894;11.424;2023-03-01T05:28:26;27.75;;;16.15;;
21562;SDS011;10942;47.894;11.424;2023-03-01T05:30:53;31.20;;;16.05;;
21562;SDS011;10942;47.894;11.424;2023-03-01T05:33:20;27.83;;;15.60;;
21562;SDS011;10942;47.894;11.424;2023-03-01T05:35:47;27.33;;;15.30;;
21562;SDS011;10942;47.894;11.424;2023-03-01T05:38:14;27.95;;;15.35;;
21562;SDS011;10942;47.894;11.424;2023-03-01T05:40:41;27.25;;;16.02;;
21562;SDS011;10942;47.894;11.424;2023-03-01T05:43:11;25.45;;;15.40;;
21562;SDS011;10942;47.894;11.424;2023-03-01T05:45:38;27.92;;;16.50;;
21562;SDS011;10942;47.894;11.424;2023-03-01T05:48:06;32.88;;;16.42;;
21562;SDS011;10942;47.894;11.424;2023-03-01T05:50:36;26.27;;;15.63;;
21562;SDS011;10942;47.894;11.424;2023-03-01T05:53:17;34.33;;;18.20;;
21562;SDS011;10942;47.894;11.424;2023-03-01T05:55:46;25.33;;;15.67;;
21562;SDS011;10942;47.894;11.424;2023-03-01T05:58:14;28.23;;;16.20;;
21562;SDS011;10942;47.894;11.424;2023-03-01T06:00:43;30.00;;;16.35;;
21562;SDS011;10942;47.894;11.424;2023-03-01T06:03:12;27.92;;;15.63;;
21562;SDS011;10942;47.894;11.424;2023-03-01T06:05:39;30.10;;;16.00;;
21562;SDS011;10942;47.894;11.424;2023-03-01T06:08:06;30.77;;;16.70;;
21562;SDS011;10942;47.894;11.424;2023-03-01T06:10:32;30.00;;;16.08;;
21562;SDS011;10942;47.894;11.424;2023-03-01T06:12:58;29.17;;;16.30;;
21562;SDS011;10942;47.894;11.424;2023-03-01T06:15:24;27.20;;;15.75;;
21562;SDS011;10942;47.894;11.424;2023-03-01T06:17:50;28.35;;;16.20;;
21562;SDS011;10942;47.894;11.424;2023-03-01T06:20:20;29.85;;;16.95;;
21562;SDS011;10942;47.894;11.424;2023-03-01T06:22:47;30.08;;;16.30;;
21562;SDS011;10942;47.894;11.424;2023-03-01T06:25:15;27.85;;;17.10;;
21562;SDS011;10942;47.894;11.424;2023-03-01T06:27:43;30.92;;;16.48;;
21562;SDS011;10942;47.894;11.424;2023-03-01T06:30:11;30.30;;;16.88;;
21562;SDS011;10942;47.894;11.424;2023-03-01T06:32:39;30.70;;;17.27;;
21562;SDS011;10942;47.894;11.424;2023-03-01T06:35:12;29.45;;;16.40;;
21562;SDS011;10942;47.894;11.424;2023-03-01T06:37:40;30.77;;;17.10;;
21562;SDS011;10942;47.894;11.424;2023-03-01T06:40:06;34.33;;;18.10;;
21562;SDS011;10942;47.894;11.424;2023-03-01T06:42:40;31.63;;;18.20;;
21562;SDS011;10942;47.894;11.424;2023-03-01T06:45:08;34.35;;;17.30;;
21562;SDS011;10942;47.894;11.424;2023-03-01T06:47:34;31.88;;;16.02;;
21562;SDS011;10942;47.894;11.424;2023-03-01T06:50:00;30.17;;;16.70;;
21562;SDS011;10942;47.894;11.424;2023-03-01T06:52:27;35.03;;;18.30;;
21562;SDS011;10942;47.894;11.424;2023-03-01T06:54:52;30.88;;;16.98;;
21562;SDS011;10942;47.894;11.424;2023-03-01T06:57:18;32.70;;;18.75;;
21562;SDS011;10942;47.894;11.424;2023-03-01T06:59:44;31.33;;;16.55;;
21562;SDS011;10942;47.894;11.424;2023-03-01T07:02:13;34.10;;;16.98;;
21562;SDS011;10942;47.894;11.424;2023-03-01T07:04:40;33.53;;;18.27;;
21562;SDS011;10942;47.894;11.424;2023-03-01T07:07:06;37.42;;;19.23;;
21562;SDS011;10942;47.894;11.424;2023-03-01T07:09:31;31.05;;;17.63;;
21562;SDS011;10942;47.894;11.424;2023-03-01T07:11:57;36.20;;;20.38;;
21562;SDS011;10942;47.894;11.424;2023-03-01T07:14:23;32.42;;;19.27;;
21562;SDS011;10942;47.894;11.424;2023-03-01T07:16:50;36.33;;;18.00;;
21562;SDS011;10942;47.894;11.424;2023-03-01T07:19:19;35.20;;;18.55;;
21562;SDS011;10942;47.894;11.424;2023-03-01T07:21:46;33.60;;;17.83;;
21562;SDS011;10942;47.894;11.424;2023-03-01T07:24:12;30.23;;;17.77;;
21562;SDS011;10942;47.894;11.424;2023-03-01T07:26:37;33.85;;;19.73;;
21562;SDS011;10942;47.894;11.424;2023-03-01T07:29:04;32.60;;;18.02;;
21562;SDS011;10942;47.894;11.424;2023-03-01T07:31:31;35.45;;;19.55;;
21562;SDS011;10942;47.894;11.424;2023-03-01T07:33:57;33.78;;;17.75;;
21562;SDS011;10942;47.894;11.424;2023-03-01T07:36:23;38.25;;;18.80;;
21562;SDS011;10942;47.894;11.424;2023-03-01T07:38:49;36.40;;;20.13;;
21562;SDS011;10942;47.894;11.424;2023-03-01T07:41:15;33.20;;;17.13;;
21562;SDS011;10942;47.894;11.424;2023-03-01T07:43:41;31.58;;;18.92;;
21562;SDS011;10942;47.894;11.424;2023-03-01T07:46:06;35.78;;;19.42;;
21562;SDS011;10942;47.894;11.424;2023-03-01T07:48:32;33.15;;;17.85;;
21562;SDS011;10942;47.894;11.424;2023-03-01T07:51:02;37.92;;;19.40;;
21562;SDS011;10942;47.894;11.424;2023-03-01T07:53:29;36.33;;;19.15;;
21562;SDS011;10942;47.894;11.424;2023-03-01T07:56:00;34.20;;;18.45;;
21562;SDS011;10942;47.894;11.424;2023-03-01T07:58:27;39.08;;;19.58;;
21562;SDS011;10942;47.894;11.424;2023-03-01T08:00:52;38.55;;;20.02;;
21562;SDS011;10942;47.894;11.424;2023-03-01T08:03:18;39.10;;;20.10;;
21562;SDS011;10942;47.894;11.424;2023-03-01T08:05:44;40.22;;;20.98;;
21562;SDS011;10942;47.894;11.424;2023-03-01T08:08:09;33.22;;;19.13;;
21562;SDS011;10942;47.894;11.424;2023-03-01T08:10:35;37.22;;;19.63;;
21562;SDS011;10942;47.894;11.424;2023-03-01T08:13:01;43.25;;;23.38;;
21562;SDS011;10942;47.894;11.424;2023-03-01T08:15:27;42.97;;;22.40;;
21562;SDS011;10942;47.894;11.424;2023-03-01T08:17:53;37.45;;;19.67;;
21562;SDS011;10942;47.894;11.424;2023-03-01T08:20:18;37.33;;;20.08;;
21562;SDS011;10942;47.894;11.424;2023-03-01T08:22:44;34.08;;;19.20;;
21562;SDS011;10942;47.894;11.424;2023-03-01T08:25:10;33.47;;;19.23;;
21562;SDS011;10942;47.894;11.424;2023-03-01T08:27:35;33.80;;;18.27;;
21562;SDS011;10942;47.894;11.424;2023-03-01T08:30:01;32.80;;;19.60;;
21562;SDS011;10942;47.894;11.424;2023-03-01T08:32:27;37.30;;;20.08;;
21562;SDS011;10942;47.894;11.424;2023-03-01T08:34:53;33.45;;;18.40;;
21562;SDS011;10942;47.894;11.424;2023-03-01T08:37:19;36.95;;;19.85;;
21562;SDS011;10942;47.894;11.424;2023-03-01T08:39:44;34.35;;;19.27;;
21562;SDS011;10942;47.894;11.424;2023-03-01T08:42:10;35.63;;;19.77;;
21562;SDS011;10942;47.894;11.424;2023-03-01T08:44:35;32.72;;;18.90;;
21562;SDS011;10942;47.894;11.424;2023-03-01T08:47:01;35.00;;;18.83;;
21562;SDS011;10942;47.894;11.424;2023-03-01T08:49:28;38.53;;;20.65;;
21562;SDS011;10942;47.894;11.424;2023-03-01T08:51:54;34.92;;;18.38;;
21562;SDS011;10942;47.894;11.424;2023-03-01T08:54:20;29.70;;;18.77;;
21562;SDS011;10942;47.894;11.424;2023-03-01T08:56:47;36.20;;;19.30;;
21562;SDS011;10942;47.894;11.424;2023-03-01T08:59:13;34.33;;;18.30;;
21562;SDS011;10942;47.894;11.424;2023-03-01T09:01:41;35.58;;;19.50;;
21562;SDS011;10942;47.894;11.424;2023-03-01T09:04:10;34.47;;;17.98;;
21562;SDS011;10942;47.894;11.424;2023-03-01T09:06:36;28.90;;;16.80;;
21562;SDS011;10942;47.894;11.424;2023-03-01T09:09:02;37.97;;;18.52;;
21562;SDS011;10942;47.894;11.424;2023-03-01T09:11:29;35.75;;;17.98;;
21562;SDS011;10942;47.894;11.424;2023-03-01T09:13:55;34.25;;;17.50;;
21562;SDS011;10942;47.894;11.424;2023-03-01T09:16:21;31.58;;;17.88;;
21562;SDS011;10942;47.894;11.424;2023-03-01T09:18:54;30.48;;;17.45;;
21562;SDS011;10942;47.894;11.424;2023-03-01T09:21:21;31.92;;;17.30;;
21562;SDS011;10942;47.894;11.424;2023-03-01T09:23:48;30.95;;;16.65;;
21562;SDS011;10942;47.894;11.424;2023-03-01T09:26:16;29.35;;;16.98;;
21562;SDS011;10942;47.894;11.424;2023-03-01T09:28:44;33.55;;;17.73;;
21562;SDS011;10942;47.894;11.424;2023-03-01T09:31:11;31.23;;;16.98;;
21562;SDS011;10942;47.894;11.424;2023-03-01T09:33:38;32.00;;;17.10;;
21562;SDS011;10942;47.894;11.424;2023-03-01T09:36:10;27.48;;;15.93;;
21562;SDS011;10942;47.894;11.424;2023-03-01T09:38:38;30.63;;;16.42;;
21562;SDS011;10942;47.894;11.424;2023-03-01T09:41:09;29.95;;;17.92;;
21562;SDS011;10942;47.894;11.424;2023-03-01T09:43:55;33.20;;;18.17;;
21562;SDS011;10942;47.894;11.424;2023-03-01T09:46:28;29.23;;;16.25;;
21562;SDS011;10942;47.894;11.424;2023-03-01T09:48:58;35.65;;;17.38;;
21562;SDS011;10942;47.894;11.424;2023-03-01T09:54:00;29.58;;;16.90;;
21562;SDS011;10942;47.894;11.424;2023-03-01T09:56:36;28.17;;;15.75;;
21562;SDS011;10942;47.894;11.424;2023-03-01T10:07:29;29.05;;;15.85;;
21562;SDS011;10942;47.894;11.424;2023-03-01T10:10:06;27.38;;;16.17;;
21562;SDS011;10942;47.894;11.424;2023-03-01T10:12:34;31.95;;;15.73;;
21562;SDS011;10942;47.894;11.424;2023-03-01T10:15:15;29.77;;;15.63;;
21562;SDS011;10942;47.894;11.424;2023-03-01T10:20:53;28.50;;;15.75;;
21562;SDS011;10942;47.894;11.424;2023-03-01T10:23:24;28.45;;;16.05;;
21562;SDS011;10942;47.894;11.424;2023-03-01T10:28:30;28.75;;;15.95;;
21562;SDS011;10942;47.894;11.424;2023-03-01T10:30:59;26.45;;;16.25;;
21562;SDS011;10942;47.894;11.424;2023-03-01T10:33:43;33.17;;;16.30;;
21562;SDS011;10942;47.894;11.424;2023-03-01T10:36:09;28.35;;;16.63;;
21562;SDS011;10942;47.894;11.424;2023-03-01T10:38:52;30.35;;;16.48;;
21562;SDS011;10942;47.894;11.424;2023-03-01T10:41:21;30.13;;;15.82;;
21562;SDS011;10942;47.894;11.424;2023-03-01T10:43:52;30.15;;;15.80;;
21562;SDS011;10942;47.894;11.424;2023-03-01T10:51:40;36.70;;;16.88;;
21562;SDS011;10942;47.894;11.424;2023-03-01T10:56:50;27.83;;;15.40;;
21562;SDS011;10942;47.894;11.424;2023-03-01T11:04:34;27.60;;;14.18;;
21562;SDS011;10942;47.894;11.424;2023-03-01T11:07:01;27.65;;;15.25;;
21562;SDS011;10942;47.894;11.424;2023-03-01T11:09:30;26.50;;;14.95;;
21562;SDS011;10942;47.894;11.424;2023-03-01T11:12:03;23.70;;;13.85;;
21562;SDS011;10942;47.894;11.424;2023-03-01T11:14:38;26.40;;;14.48;;
21562;SDS011;10942;47.894;11.424;2023-03-01T11:19:38;29.38;;;14.93;;
21562;SDS011;10942;47.894;11.424;2023-03-01T11:22:14;27.75;;;14.35;;
21562;SDS011;10942;47.894;11.424;2023-03-01T11:24:51;25.90;;;13.75;;
21562;SDS011;10942;47.894;11.424;2023-03-01T11:27:21;29.48;;;15.73;;
21562;SDS011;10942;47.894;11.424;2023-03-01T11:32:32;31.63;;;16.48;;
21562;SDS011;10942;47.894;11.424;2023-03-01T11:35:20;26.63;;;14.57;;
21562;SDS011;10942;47.894;11.424;2023-03-01T11:49:12;25.27;;;14.55;;
21562;SDS011;10942;47.894;11.424;2023-03-01T12:00:12;26.38;;;14.20;;
21562;SDS011;10942;47.894;11.424;2023-03-01T12:06:23;27.27;;;14.85;;
21562;SDS011;10942;47.894;11.424;2023-03-01T12:11:35;28.02;;;16.25;;
21562;SDS011;10942;47.894;11.424;2023-03-01T12:19:55;27.90;;;14.57;;
21562;SDS011;10942;47.894;11.424;2023-03-01T12:22:29;29.60;;;15.38;;
21562;SDS011;10942;47.894;11.424;2023-03-01T12:28:21;26.48;;;15.35;;
21562;SDS011;10942;47.894;11.424;2023-03-01T12:49:16;27.48;;;14.75;;
21562;SDS011;10942;47.894;11.424;2023-03-01T12:52:29;29.92;;;14.75;;
21562;SDS011;10942;47.894;11.424;2023-03-01T12:54:53;29.08;;;15.20;;
21562;SDS011;10942;47.894;11.424;2023-03-01T13:00:06;25.73;;;14.32;;
21562;SDS011;10942;47.894;11.424;2023-03-01T13:05:27;29.95;;;14.45;;
21562;SDS011;10942;47.894;11.424;2023-03-01T13:10:48;26.95;;;14.50;;
21562;SDS011;10942;47.894;11.424;2023-03-01T13:13:21;27.45;;;15.18;;
21562;SDS011;10942;47.894;11.424;2023-03-01T13:15:49;34.95;;;17.50;;
21562;SDS011;10942;47.894;11.424;2023-03-01T13:31:10;25.50;;;15.20;;
21562;SDS011;10942;47.894;11.424;2023-03-01T13:33:59;32.75;;;15.35;;
21562;SDS011;10942;47.894;11.424;2023-03-01T13:49:43;27.08;;;14.80;;
21562;SDS011;10942;47.894;11.424;2023-03-01T13:52:27;25.63;;;14.95;;
21562;SDS011;10942;47.894;11.424;2023-03-01T13:54:59;29.23;;;14.70;;
21562;SDS011;10942;47.894;11.424;2023-03-01T13:57:30;27.95;;;14.43;;
21562;SDS011;10942;47.894;11.424;2023-03-01T13:59:59;31.45;;;15.75;;
21562;SDS011;10942;47.894;11.424;2023-03-01T14:02:25;28.48;;;15.38;;
21562;SDS011;10942;47.894;11.424;2023-03-01T14:05:00;28.00;;;15.02;;
21562;SDS011;10942;47.894;11.424;2023-03-01T14:07:27;34.47;;;18.52;;
21562;SDS011;10942;47.894;11.424;2023-03-01T14:10:04;33.95;;;18.73;;
21562;SDS011;10942;47.894;11.424;2023-03-01T14:18:10;26.23;;;14.98;;
21562;SDS011;10942;47.894;11.424;2023-03-01T14:20:49;23.52;;;13.60;;
21562;SDS011;10942;47.894;11.424;2023-03-01T14:23:20;26.77;;;15.73;;
21562;SDS011;10942;47.894;11.424;2023-03-01T14:25:51;29.83;;;16.38;;
21562;SDS011;10942;47.894;11.424;2023-03-01T14:28:20;31.65;;;16.85;;
21562;SDS011;10942;47.894;11.424;2023-03-01T14:31:01;29.52;;;16.65;;
21562;SDS011;10942;47.894;11.424;2023-03-01T14:33:29;30.85;;;16.17;;
21562;SDS011;10942;47.894;11.424;2023-03-01T14:38:39;26.23;;;15.20;;
21562;SDS011;10942;47.894;11.424;2023-03-01T14:41:20;28.45;;;16.80;;
21562;SDS011;10942;47.894;11.424;2023-03-01T14:43:50;27.88;;;16.35;;
21562;SDS011;10942;47.894;11.424;2023-03-01T14:46:24;27.15;;;15.13;;
21562;SDS011;10942;47.894;11.424;2023-03-01T14:49:01;28.70;;;15.82;;
21562;SDS011;10942;47.894;11.424;2023-03-01T14:51:30;26.15;;;14.77;;
21562;SDS011;10942;47.894;11.424;2023-03-01T14:54:00;28.83;;;16.02;;
21562;SDS011;10942;47.894;11.424;2023-03-01T14:56:26;28.35;;;16.15;;
21562;SDS011;10942;47.894;11.424;2023-03-01T14:59:07;31.15;;;17.50;;
21562;SDS011;10942;47.894;11.424;2023-03-01T15:01:34;29.80;;;15.57;;
21562;SDS011;10942;47.894;11.424;2023-03-01T15:04:01;30.63;;;17.17;;
21562;SDS011;10942;47.894;11.424;2023-03-01T15:06:27;38.45;;;20.42;;
21562;SDS011;10942;47.894;11.424;2023-03-01T15:08:53;31.02;;;16.50;;
21562;SDS011;10942;47.894;11.424;2023-03-01T15:11:31;26.88;;;16.05;;
21562;SDS011;10942;47.894;11.424;2023-03-01T15:13:58;29.60;;;17.85;;
21562;SDS011;10942;47.894;11.424;2023-03-01T15:16:29;32.75;;;18.83;;
21562;SDS011;10942;47.894;11.424;2023-03-01T15:21:31;70.63;;;37.00;;
21562;SDS011;10942;47.894;11.424;2023-03-01T15:24:08;41.88;;;22.50;;
21562;SDS011;10942;47.894;11.424;2023-03-01T15:27:01;33.55;;;18.35;;
21562;SDS011;10942;47.894;11.424;2023-03-01T15:29:32;34.17;;;18.42;;
21562;SDS011;10942;47.894;11.424;2023-03-01T15:32:47;37.70;;;20.13;;
21562;SDS011;10942;47.894;11.424;2023-03-01T15:34:57;35.22;;;19.45;;
21562;SDS011;10942;47.894;11.424;2023-03-01T15:43:00;35.05;;;18.80;;
21562;SDS011;10942;47.894;11.424;2023-03-01T15:45:28;31.55;;;18.02;;
21562;SDS011;10942;47.894;11.424;2023-03-01T15:47:58;31.63;;;17.63;;
21562;SDS011;10942;47.894;11.424;2023-03-01T15:53:00;33.58;;;18.98;;
21562;SDS011;10942;47.894;11.424;2023-03-01T15:55:30;36.30;;;18.55;;
21562;SDS011;10942;47.894;11.424;2023-03-01T15:58:13;32.72;;;18.73;;
21562;SDS011;10942;47.894;11.424;2023-03-01T16:00:39;32.92;;;18.08;;
21562;SDS011;10942;47.894;11.424;2023-03-01T16:03:05;31.40;;;17.42;;
21562;SDS011;10942;47.894;11.424;2023-03-01T16:05:34;34.42;;;18.52;;
21562;SDS011;10942;47.894;11.424;2023-03-01T16:08:01;33.92;;;18.02;;
21562;SDS011;10942;47.894;11.424;2023-03-01T16:10:28;32.40;;;17.65;;
21562;SDS011;10942;47.894;11.424;2023-03-01T16:12:55;35.20;;;18.75;;
21562;SDS011;10942;47.894;11.424;2023-03-01T16:15:25;35.88;;;19.05;;
21562;SDS011;10942;47.894;11.424;2023-03-01T16:17:51;33.63;;;18.20;;
21562;SDS011;10942;47.894;11.424;2023-03-01T16:20:22;21.77;;;12.82;;
21562;SDS011;10942;47.894;11.424;2023-03-01T16:22:49;28.92;;;17.58;;
21562;SDS011;10942;47.894;11.424;2023-03-01T16:25:15;33.10;;;18.67;;
21562;SDS011;10942;47.894;11.424;2023-03-01T16:27:43;36.70;;;19.17;;
21562;SDS011;10942;47.894;11.424;2023-03-01T16:30:14;30.00;;;17.45;;
21562;SDS011;10942;47.894;11.424;2023-03-01T16:32:42;35.55;;;17.10;;
21562;SDS011;10942;47.894;11.424;2023-03-01T16:35:09;31.05;;;17.88;;
21562;SDS011;10942;47.894;11.424;2023-03-01T16:37:37;31.80;;;17.73;;
21562;SDS011;10942;47.894;11.424;2023-03-01T16:40:04;63.13;;;25.88;;
21562;SDS011;10942;47.894;11.424;2023-03-01T16:42:35;47.70;;;22.98;;
21562;SDS011;10942;47.894;11.424;2023-03-01T16:45:06;38.28;;;21.17;;
21562;SDS011;10942;47.894;11.424;2023-03-01T16:47:32;49.67;;;25.20;;
21562;SDS011;10942;47.894;11.424;2023-03-01T16:49:58;39.33;;;21.48;;
21562;SDS011;10942;47.894;11.424;2023-03-01T16:52:24;41.55;;;22.17;;
21562;SDS011;10942;47.894;11.424;2023-03-01T16:54:50;42.13;;;21.42;;
21562;SDS011;10942;47.894;11.424;2023-03-01T16:57:16;34.50;;;19.38;;